Time;durP1;ratioP1;P1;durP2;ratioP2;P2;SDS_P1;SDS_P2;PMS_P1;PMS_P2;Temp;Humidity;BMP_temperature;BMP_pressure;BME280_temperature;BME280_humidity;BME280_pressure;Samples;Min_cycle;Max_cycle;Signal;HPM_P1;HPM_P2
2021/12/20 00:01:13;;;;;;;5.70;2.97;;;;;;;3.62;100.00;93866.59;5031503;28;20202;-61
2021/12/20 00:03:39;;;;;;;7.40;3.47;;;;;;;3.62;100.00;93884.16;5031634;28;20671;-63
2021/12/20 00:06:05;;;;;;;4.83;3.27;;;;;;;3.55;100.00;93895.56;5031992;28;20190;-65
2021/12/20 00:08:31;;;;;;;5.57;3.17;;;;;;;3.57;100.00;93891.25;5031502;28;20193;-61
2021/12/20 00:10:56;;;;;;;7.47;3.57;;;;;;;3.49;100.00;93885.94;5031843;28;20194;-63
2021/12/20 00:13:23;;;;;;;5.10;3.33;;;;;;;3.45;100.00;93887.06;5030673;28;20210;-62
2021/12/20 00:15:49;;;;;;;5.17;3.60;;;;;;;3.47;100.00;93884.44;5032418;28;20226;-63
2021/12/20 00:18:14;;;;;;;4.67;3.17;;;;;;;3.46;100.00;93892.88;5031198;28;20182;-63
2021/12/20 00:20:39;;;;;;;5.47;3.03;;;;;;;3.45;100.00;93904.66;5031363;28;20209;-60
2021/12/20 00:23:05;;;;;;;6.10;3.60;;;;;;;3.47;100.00;93899.53;5031998;28;20189;-62
2021/12/20 00:25:32;;;;;;;5.33;3.03;;;;;;;3.47;100.00;93907.06;5031512;28;20201;-62
2021/12/20 00:27:57;;;;;;;5.77;4.00;;;;;;;3.43;100.00;93902.22;5032188;28;20207;-62
2021/12/20 00:30:32;;;;;;;5.87;4.40;;;;;;;3.48;100.00;93896.09;5031880;28;20190;-65
2021/12/20 00:32:58;;;;;;;4.93;3.33;;;;;;;3.50;100.00;93895.06;5031997;28;20280;-62
2021/12/20 00:35:24;;;;;;;5.83;3.43;;;;;;;3.54;100.00;93890.63;5030394;28;20273;-62
2021/12/20 00:40:37;;;;;;;4.63;2.90;;;;;;;3.54;100.00;93888.13;5031959;28;20247;-61
2021/12/20 00:43:03;;;;;;;4.87;3.00;;;;;;;3.54;100.00;93910.72;5035423;28;20185;-62
2021/12/20 00:45:31;;;;;;;5.67;3.17;;;;;;;3.48;100.00;93898.59;5035052;28;20183;-63
2021/12/20 00:47:57;;;;;;;4.10;3.10;;;;;;;3.50;100.00;93894.28;5035576;28;20273;-64
2021/12/20 00:50:25;;;;;;;3.93;3.20;;;;;;;3.50;100.00;93896.78;5034762;28;20189;-64
2021/12/20 00:52:51;;;;;;;4.80;3.00;;;;;;;3.57;100.00;93895.47;5035343;28;20757;-65
2021/12/20 00:55:19;;;;;;;4.23;3.30;;;;;;;3.53;100.00;93884.84;5035160;28;20193;-62
2021/12/20 00:57:48;;;;;;;4.57;3.03;;;;;;;3.51;100.00;93900.91;5035024;28;20305;-63
2021/12/20 01:00:17;;;;;;;2.90;2.60;;;;;;;3.55;100.00;93893.06;5034037;28;20186;-63
2021/12/20 01:02:43;;;;;;;2.93;2.60;;;;;;;3.63;100.00;93895.84;5033462;28;20562;-64
2021/12/20 01:05:09;;;;;;;3.37;2.80;;;;;;;3.50;100.00;93890.06;5033550;28;20255;-62
2021/12/20 01:07:35;;;;;;;4.10;2.77;;;;;;;3.49;100.00;93888.47;5033542;28;20700;-61
2021/12/20 01:10:05;;;;;;;3.20;2.30;;;;;;;3.52;100.00;93900.81;5035008;28;20205;-65
2021/12/20 01:12:40;;;;;;;3.33;2.40;;;;;;;3.55;100.00;93892.25;5033648;28;20224;-61
2021/12/20 01:15:07;;;;;;;4.17;2.57;;;;;;;3.52;100.00;93885.72;5034488;28;20218;-63
2021/12/20 01:17:32;;;;;;;2.13;1.87;;;;;;;3.50;100.00;93904.31;5035134;28;20202;-63
2021/12/20 01:19:57;;;;;;;2.90;2.33;;;;;;;3.50;100.00;93901.81;5034318;28;20511;-61
2021/12/20 01:22:23;;;;;;;3.00;2.20;;;;;;;3.55;100.00;93902.31;5034557;28;20580;-65
2021/12/20 01:24:49;;;;;;;3.37;2.23;;;;;;;3.55;100.00;93914.88;5034617;28;20188;-62
2021/12/20 01:27:14;;;;;;;2.40;2.20;;;;;;;3.54;100.00;93906.50;5033131;28;20201;-65
2021/12/20 01:29:39;;;;;;;3.03;2.30;;;;;;;3.56;100.00;93911.44;5034745;28;20179;-62
2021/12/20 01:32:05;;;;;;;3.00;2.50;;;;;;;3.57;100.00;93910.53;5034253;28;20288;-61
2021/12/20 01:34:31;;;;;;;2.57;2.23;;;;;;;3.53;100.00;93931.75;5034097;28;20181;-64
2021/12/20 01:36:57;;;;;;;3.30;2.13;;;;;;;3.53;100.00;93909.16;5033780;28;20198;-61
2021/12/20 01:39:22;;;;;;;3.80;2.43;;;;;;;3.53;100.00;93899.91;5034032;28;20178;-61
2021/12/20 01:41:51;;;;;;;3.40;2.43;;;;;;;3.54;100.00;93934.16;5032629;28;20297;-64
2021/12/20 01:44:17;;;;;;;2.90;2.57;;;;;;;3.51;100.00;93915.97;5033957;28;20185;-61
2021/12/20 01:46:43;;;;;;;2.87;2.37;;;;;;;3.53;100.00;93919.19;5033984;28;20228;-63
2021/12/20 01:49:11;;;;;;;3.57;2.57;;;;;;;3.49;100.00;93920.31;5034011;28;20656;-61
2021/12/20 01:52:01;;;;;;;3.37;2.57;;;;;;;3.49;100.00;93907.75;5033574;28;20204;-62
2021/12/20 01:54:27;;;;;;;2.57;2.20;;;;;;;3.48;100.00;93917.00;5033517;28;20171;-65
2021/12/20 01:56:53;;;;;;;3.07;2.40;;;;;;;3.61;100.00;93927.00;5032505;28;20216;-63
2021/12/20 01:59:18;;;;;;;3.10;2.27;;;;;;;3.56;100.00;93927.31;5033494;28;20641;-61
2021/12/20 02:01:45;;;;;;;3.17;1.97;;;;;;;3.59;100.00;93933.84;5033659;28;20205;-63
2021/12/20 02:04:12;;;;;;;2.53;2.33;;;;;;;3.57;100.00;93928.13;5033463;28;20654;-61
2021/12/20 02:06:45;;;;;;;2.70;2.50;;;;;;;3.58;100.00;93935.53;5033336;28;20206;-64
2021/12/20 02:09:13;;;;;;;3.70;2.83;;;;;;;3.55;100.00;93930.75;5034006;28;20631;-60
2021/12/20 02:11:41;;;;;;;3.83;2.47;;;;;;;3.61;100.00;93927.81;5033581;28;20579;-63
2021/12/20 02:14:09;;;;;;;2.37;2.10;;;;;;;3.57;100.00;93923.09;5033392;28;20177;-61
2021/12/20 02:16:35;;;;;;;3.20;2.40;;;;;;;3.46;100.00;93902.94;5015459;28;20194;-64
2021/12/20 02:19:07;;;;;;;4.23;3.03;;;;;;;3.46;100.00;93910.47;5040837;22;20226;-62
2021/12/20 02:21:33;;;;;;;3.33;2.83;;;;;;;3.45;100.00;93932.28;5033700;28;20741;-61
2021/12/20 02:23:58;;;;;;;4.50;3.20;;;;;;;3.53;100.00;93924.22;5032287;28;20178;-62
2021/12/20 02:26:24;;;;;;;3.43;2.50;;;;;;;3.49;100.00;93925.34;5033244;28;20208;-61
2021/12/20 02:28:53;;;;;;;4.87;3.13;;;;;;;3.43;100.00;93909.75;5033914;28;20232;-60
2021/12/20 02:39:22;;;;;;;3.33;2.83;;;;;;;3.45;100.00;93906.38;5033172;28;20665;-60
2021/12/20 02:41:48;;;;;;;4.47;3.07;;;;;;;3.54;100.00;93910.72;5014959;28;20207;-61
2021/12/20 02:44:19;;;;;;;5.40;3.47;;;;;;;3.55;100.00;93933.25;5031708;28;20185;-64
2021/12/20 02:47:14;;;;;;;4.10;3.13;;;;;;;3.51;100.00;93913.47;5039939;22;20232;-61
2021/12/20 02:49:33;;;;;;;5.43;3.90;;;;;;;3.47;100.00;93917.91;5032549;28;20202;-61
2021/12/20 02:52:07;;;;;;;4.90;3.67;;;;;;;3.44;100.00;93933.19;5031332;28;20213;-64
2021/12/20 02:54:33;;;;;;;4.23;3.30;;;;;;;3.41;100.00;93915.81;5032720;28;20552;-62
2021/12/20 02:57:00;;;;;;;3.90;3.27;;;;;;;3.48;100.00;93921.19;5032906;28;20202;-61
2021/12/20 02:59:26;;;;;;;4.40;3.07;;;;;;;3.54;100.00;93939.19;5031695;28;20270;-61
2021/12/20 03:02:05;;;;;;;3.53;3.20;;;;;;;3.48;100.00;93921.19;5032797;28;20296;-61
2021/12/20 03:04:31;;;;;;;5.07;3.27;;;;;;;3.43;100.00;93909.00;5030655;28;20170;-62
2021/12/20 03:07:02;;;;;;;3.57;3.20;;;;;;;3.41;100.00;93906.56;5032987;28;20213;-62
2021/12/20 03:09:32;;;;;;;4.40;3.27;;;;;;;3.46;100.00;93902.94;5033096;28;20197;-64
2021/12/20 03:11:59;;;;;;;9.03;3.23;;;;;;;3.47;100.00;93904.53;5039637;22;20233;-61
2021/12/20 03:14:32;;;;;;;4.57;3.30;;;;;;;3.43;100.00;93907.25;5032539;28;20197;-60
2021/12/20 03:16:59;;;;;;;5.43;3.10;;;;;;;3.38;100.00;93904.28;5032057;28;20559;-62
2021/12/20 03:19:25;;;;;;;4.17;3.20;;;;;;;3.34;100.00;93899.56;5032041;28;20186;-62
2021/12/20 03:21:51;;;;;;;4.43;3.57;;;;;;;3.33;100.00;93897.97;5030661;28;20237;-63
2021/12/20 03:24:17;;;;;;;8.13;5.23;;;;;;;3.35;100.00;93901.97;5032504;28;20178;-61
2021/12/20 03:26:43;;;;;;;5.97;3.97;;;;;;;3.34;100.00;93905.38;5030839;28;20593;-61
2021/12/20 03:29:09;;;;;;;6.37;4.07;;;;;;;3.35;100.00;93908.72;5032229;28;20193;-65
2021/12/20 03:31:35;;;;;;;5.63;3.83;;;;;;;3.39;100.00;93913.41;5032107;28;20201;-64
2021/12/20 03:34:01;;;;;;;4.57;3.37;;;;;;;3.47;100.00;93915.41;5031916;28;20198;-60
2021/12/20 03:36:27;;;;;;;4.07;3.47;;;;;;;3.54;100.00;93926.63;5039452;22;20725;-62
2021/12/20 03:38:52;;;;;;;3.67;3.10;;;;;;;3.55;100.00;93927.44;5031876;28;20253;-62
2021/12/20 03:41:18;;;;;;;6.23;4.03;;;;;;;3.52;100.00;93933.47;5032310;28;20217;-62
2021/12/20 03:43:44;;;;;;;5.03;3.73;;;;;;;3.47;100.00;93917.91;5031199;28;20663;-64
2021/12/20 03:46:10;;;;;;;4.63;3.37;;;;;;;3.41;100.00;93914.09;5031768;28;20274;-65
2021/12/20 03:48:36;;;;;;;6.17;3.67;;;;;;;3.51;100.00;93921.00;5030559;28;20189;-62
2021/12/20 03:51:04;;;;;;;7.40;4.17;;;;;;;3.51;100.00;93911.78;5032068;28;20206;-61
2021/12/20 03:53:30;;;;;;;5.23;4.13;;;;;;;3.59;100.00;93916.25;5031700;28;20706;-64
2021/12/20 03:55:56;;;;;;;6.10;4.07;;;;;;;3.45;100.00;93922.25;5031931;28;20201;-63
2021/12/20 03:58:23;;;;;;;6.23;3.83;;;;;;;3.43;100.00;93909.75;5032029;28;20576;-61
2021/12/20 04:00:49;;;;;;;5.93;3.67;;;;;;;3.34;100.00;93920.47;5031639;28;20679;-62
2021/12/20 04:03:15;;;;;;;7.00;4.20;;;;;;;3.33;100.00;93903.78;5032001;28;20181;-62
2021/12/20 04:05:41;;;;;;;5.57;4.57;;;;;;;3.29;100.00;93911.66;5032093;28;20224;-60
2021/12/20 04:08:08;;;;;;;6.33;3.70;;;;;;;3.18;100.00;93909.06;5032000;28;20196;-60
2021/12/20 04:10:34;;;;;;;4.97;4.40;;;;;;;3.26;100.00;93921.88;5030244;28;20197;-64
2021/12/20 04:13:00;;;;;;;5.20;3.80;;;;;;;3.18;100.00;93919.91;5030297;28;20684;-63
2021/12/20 04:15:25;;;;;;;6.30;3.93;;;;;;;3.11;100.00;93927.97;5032230;28;20200;-65
2021/12/20 04:17:51;;;;;;;7.37;4.87;;;;;;;3.07;100.00;93924.06;5035333;28;20182;-62
2021/12/20 04:20:17;;;;;;;6.30;4.50;;;;;;;3.06;100.00;93935.78;5035844;28;20191;-65
2021/12/20 04:22:43;;;;;;;5.80;4.67;;;;;;;3.31;100.00;93950.78;5035578;28;20726;-62
2021/12/20 04:25:09;;;;;;;9.13;5.37;;;;;;;3.14;100.00;93962.88;5035424;28;20235;-64
2021/12/20 04:27:35;;;;;;;9.13;5.00;;;;;;;3.04;100.00;93946.84;5035516;28;20263;-62
2021/12/20 04:30:09;;;;;;;6.63;4.97;;;;;;;2.96;100.00;93939.81;5035180;28;20221;-61
2021/12/20 04:32:35;;;;;;;7.60;4.80;;;;;;;2.96;100.00;93946.56;5035240;28;20221;-63
2021/12/20 04:35:00;;;;;;;8.37;5.30;;;;;;;2.94;100.00;93951.69;5035217;28;20539;-64
2021/12/20 04:37:26;;;;;;;8.90;5.20;;;;;;;2.93;100.00;93944.25;5033845;28;20351;-62
2021/12/20 04:39:51;;;;;;;8.53;6.03;;;;;;;2.87;100.00;93947.19;5033057;28;20167;-65
2021/12/20 04:42:18;;;;;;;8.07;5.30;;;;;;;2.77;100.00;93953.72;5035004;28;20279;-63
2021/12/20 04:44:44;;;;;;;8.03;5.60;;;;;;;2.74;100.00;93961.41;5034992;28;20170;-63
2021/12/20 04:47:09;;;;;;;6.03;4.70;;;;;;;2.76;100.00;93967.94;5033699;28;20206;-64
2021/12/20 04:49:35;;;;;;;6.03;4.10;;;;;;;2.80;100.00;93966.03;5034709;28;20190;-65
2021/12/20 04:52:00;;;;;;;6.47;5.13;;;;;;;2.79;100.00;93959.44;5034997;28;20209;-65
2021/12/20 04:54:26;;;;;;;8.77;5.90;;;;;;;2.77;100.00;93976.28;5034662;28;20566;-62
2021/12/20 04:56:51;;;;;;;9.20;5.57;;;;;;;2.83;100.00;93975.88;5035103;28;20210;-63
2021/12/20 04:59:17;;;;;;;6.43;5.00;;;;;;;2.79;100.00;93975.25;5034711;28;20187;-66
2021/12/20 05:01:43;;;;;;;7.70;5.23;;;;;;;2.78;100.00;93975.38;5033289;28;20699;-59
2021/12/20 05:04:08;;;;;;;8.33;5.23;;;;;;;2.76;100.00;93983.00;5034712;28;20183;-62
2021/12/20 05:06:34;;;;;;;7.37;4.70;;;;;;;2.78;100.00;93985.41;5035012;28;20202;-65
2021/12/20 05:09:02;;;;;;;6.43;4.83;;;;;;;2.79;100.00;93985.31;5034539;28;20606;-64
2021/12/20 05:11:30;;;;;;;6.03;4.40;;;;;;;2.83;100.00;93988.44;5033162;28;20340;-63
2021/12/20 05:13:55;;;;;;;6.40;4.50;;;;;;;2.87;100.00;93998.16;5034516;28;20206;-60
2021/12/20 05:16:21;;;;;;;4.90;4.23;;;;;;;2.86;100.00;93994.03;5034593;28;20709;-65
2021/12/20 05:18:46;;;;;;;5.10;3.77;;;;;;;2.84;100.00;93995.84;5034185;28;20178;-64
2021/12/20 05:21:12;;;;;;;6.77;3.77;;;;;;;2.82;100.00;94017.72;5034373;28;20660;-64
2021/12/20 05:23:37;;;;;;;5.60;3.77;;;;;;;2.81;100.00;94000.28;5034315;28;20194;-65
2021/12/20 05:26:03;;;;;;;5.23;4.13;;;;;;;2.78;100.00;94002.97;5034219;28;20631;-65
2021/12/20 05:28:35;;;;;;;6.00;3.70;;;;;;;2.75;100.00;94000.69;5033182;28;20535;-65
2021/12/20 05:31:07;;;;;;;6.00;3.70;;;;;;;2.70;100.00;94002.66;5033979;28;20209;-61
2021/12/20 05:33:34;;;;;;;5.33;4.43;;;;;;;2.74;100.00;94011.59;5033787;28;20718;-61
2021/12/20 05:35:59;;;;;;;6.13;4.17;;;;;;;2.74;100.00;93994.84;5033695;28;20241;-61
2021/12/20 05:38:25;;;;;;;6.73;4.57;;;;;;;2.76;100.00;93992.22;5033958;28;20170;-66
2021/12/20 05:40:50;;;;;;;5.77;4.83;;;;;;;2.80;100.00;94007.00;5034270;28;20209;-61
2021/12/20 05:43:16;;;;;;;6.83;4.77;;;;;;;2.76;100.00;94002.28;5034192;28;20262;-66
2021/12/20 05:45:41;;;;;;;5.23;3.97;;;;;;;2.75;100.00;94001.47;5032484;28;20198;-65
2021/12/20 05:48:07;;;;;;;4.83;3.80;;;;;;;2.78;100.00;94011.31;5033584;28;20174;-64
2021/12/20 05:50:32;;;;;;;5.90;4.47;;;;;;;2.80;100.00;94017.03;5033505;28;20611;-64
2021/12/20 05:52:58;;;;;;;5.30;4.13;;;;;;;2.88;100.00;94004.78;5033614;28;20204;-64
2021/12/20 05:55:23;;;;;;;5.47;4.00;;;;;;;3.01;100.00;94022.38;5033348;28;20229;-64
2021/12/20 05:57:49;;;;;;;5.43;3.93;;;;;;;2.92;100.00;94033.81;5032166;28;20709;-63
2021/12/20 06:00:18;;;;;;;5.67;3.80;;;;;;;2.93;100.00;94029.59;5033445;28;20223;-62
2021/12/20 06:02:46;;;;;;;6.73;4.07;;;;;;;2.85;100.00;94035.09;5033363;28;20171;-66
2021/12/20 06:05:12;;;;;;;5.90;4.00;;;;;;;2.88;100.00;94034.91;5033620;28;20186;-64
2021/12/20 06:07:40;;;;;;;6.40;4.20;;;;;;;2.99;100.00;94004.09;5033342;28;20202;-61
2021/12/20 06:10:08;;;;;;;13.27;6.20;;;;;;;3.60;100.00;94014.13;5032896;28;20546;-62
2021/12/20 06:12:35;;;;;;;5.60;4.57;;;;;;;3.58;100.00;94056.13;5031453;28;20326;-65
2021/12/20 06:15:01;;;;;;;5.83;3.67;;;;;;;3.37;100.00;94047.53;5032892;28;20244;-61
2021/12/20 06:17:27;;;;;;;6.73;4.10;;;;;;;3.29;100.00;94048.03;5033574;28;20206;-64
2021/12/20 06:19:52;;;;;;;4.70;4.07;;;;;;;3.27;100.00;94057.38;5033461;28;20560;-64
2021/12/20 06:22:18;;;;;;;5.10;3.73;;;;;;;3.18;100.00;94058.00;5015722;28;20221;-64
2021/12/20 06:24:43;;;;;;;5.80;3.97;;;;;;;3.18;100.00;94059.69;5032962;28;20567;-63
2021/12/20 06:27:08;;;;;;;7.57;4.73;;;;;;;3.15;100.00;94063.22;5033438;28;20598;-63
2021/12/20 06:29:34;;;;;;;5.83;4.10;;;;;;;3.15;100.00;94068.22;5032926;28;20188;-65
2021/12/20 06:32:00;;;;;;;6.23;4.67;;;;;;;3.14;100.00;94074.16;5040627;22;20676;-62
2021/12/20 06:34:25;;;;;;;5.03;3.50;;;;;;;3.15;100.00;94062.44;5031928;28;20220;-63
2021/12/20 06:36:51;;;;;;;7.50;4.80;;;;;;;3.10;100.00;94065.22;5032755;28;20292;-63
2021/12/20 06:39:17;;;;;;;5.17;3.90;;;;;;;3.23;100.00;94073.53;5032742;28;20564;-62
2021/12/20 06:41:43;;;;;;;7.53;4.33;;;;;;;3.33;100.00;94069.53;5032757;28;20288;-63
2021/12/20 06:44:09;;;;;;;6.20;4.33;;;;;;;3.24;100.00;94081.91;5031300;28;20189;-64
2021/12/20 06:46:43;;;;;;;5.90;4.03;;;;;;;3.28;100.00;94075.75;5032413;28;20210;-61
2021/12/20 06:49:10;;;;;;;7.17;4.13;;;;;;;3.32;100.00;94083.00;5032626;28;20166;-61
2021/12/20 06:51:40;;;;;;;4.20;3.60;;;;;;;3.35;100.00;94087.81;5032245;28;20202;-62
2021/12/20 06:54:07;;;;;;;4.03;2.90;;;;;;;3.36;100.00;94091.13;5032507;28;20194;-61
2021/12/20 06:56:33;;;;;;;4.10;3.03;;;;;;;3.39;100.00;94086.69;5032407;28;20220;-62
2021/12/20 06:58:58;;;;;;;3.93;2.83;;;;;;;3.36;100.00;94096.97;5032510;28;20178;-62
2021/12/20 07:01:24;;;;;;;4.53;2.70;;;;;;;3.43;100.00;94094.88;5030738;28;20275;-64
2021/12/20 07:03:49;;;;;;;7.33;3.70;;;;;;;3.43;100.00;94103.19;5030982;28;20217;-64
2021/12/20 07:06:15;;;;;;;3.47;2.10;;;;;;;3.38;100.00;94092.66;5032164;28;20198;-64
2021/12/20 07:11:25;;;;;;;6.97;3.80;;;;;;;3.38;100.00;94084.31;5031609;28;20220;-64
2021/12/20 07:13:53;;;;;;;4.07;3.07;;;;;;;3.52;100.00;94089.22;5032011;28;20202;-64
2021/12/20 07:16:19;;;;;;;4.43;3.67;;;;;;;3.56;100.00;94084.78;5031495;28;20228;-61
2021/12/20 07:18:45;;;;;;;6.60;3.83;;;;;;;3.59;100.00;94074.53;5032188;28;20615;-62
2021/12/20 07:21:10;;;;;;;4.30;3.10;;;;;;;3.50;100.00;94090.22;5032111;28;20195;-60
2021/12/20 07:23:35;;;;;;;5.13;2.60;;;;;;;3.49;100.00;94081.91;5032046;28;20664;-64
2021/12/20 07:26:03;;;;;;;4.67;3.10;;;;;;;3.58;100.00;94093.00;5031898;28;20210;-65
2021/12/20 07:28:29;;;;;;;5.73;3.53;;;;;;;3.52;100.00;94091.72;5030796;28;20197;-62
2021/12/20 07:30:54;;;;;;;5.17;2.67;;;;;;;3.43;100.00;94085.59;5030526;28;20220;-64
2021/12/20 07:33:20;;;;;;;5.20;3.10;;;;;;;3.52;100.00;94079.16;5032320;28;20222;-64
2021/12/20 07:35:46;;;;;;;5.87;3.13;;;;;;;3.50;100.00;94091.03;5030508;28;20570;-62
2021/12/20 07:38:14;;;;;;;3.97;2.83;;;;;;;3.60;100.00;94083.66;5032349;28;20197;-60
2021/12/20 07:40:44;;;;;;;5.40;3.30;;;;;;;3.76;100.00;94066.66;5031846;28;20193;-61
2021/12/20 07:43:10;;;;;;;3.53;2.70;;;;;;;3.80;100.00;94080.63;5032201;28;20192;-61
2021/12/20 07:45:36;;;;;;;3.47;2.50;;;;;;;3.65;100.00;94106.78;5031760;28;20170;-63
2021/12/20 07:48:02;;;;;;;3.40;2.60;;;;;;;3.65;100.00;94091.72;5030546;28;20570;-64
2021/12/20 07:50:28;;;;;;;3.83;2.93;;;;;;;3.55;100.00;94098.25;5033205;28;20193;-63
2021/12/20 07:52:54;;;;;;;3.53;2.87;;;;;;;3.62;100.00;94109.50;5036968;28;20214;-64
2021/12/20 07:55:20;;;;;;;4.07;2.63;;;;;;;3.59;100.00;94129.81;5038389;28;20217;-62
2021/12/20 07:57:45;;;;;;;2.77;1.93;;;;;;;3.56;100.00;94124.97;5038560;28;20182;-62
2021/12/20 08:00:11;;;;;;;3.10;2.17;;;;;;;3.53;100.00;94115.97;5038385;28;20189;-64
2021/12/20 08:02:37;;;;;;;2.27;1.87;;;;;;;3.50;100.00;94115.34;5038329;28;20241;-63
2021/12/20 08:05:03;;;;;;;3.70;2.20;;;;;;;3.47;100.00;94105.50;5038233;28;20705;-64
2021/12/20 08:07:29;;;;;;;3.70;2.10;;;;;;;3.76;100.00;94116.91;5038604;28;20201;-62
2021/12/20 08:09:54;;;;;;;3.00;2.17;;;;;;;3.94;100.00;94151.69;5038308;28;20671;-61
2021/12/20 08:12:20;;;;;;;3.53;2.17;;;;;;;3.79;100.00;94149.41;5038413;28;20218;-63
2021/12/20 08:14:45;;;;;;;4.60;2.07;;;;;;;3.83;100.00;94123.16;5036912;28;20208;-61
2021/12/20 08:17:11;;;;;;;4.33;2.20;;;;;;;3.86;100.00;94138.81;5038286;28;20606;-64
2021/12/20 08:19:36;;;;;;;2.90;2.20;;;;;;;3.82;100.00;94137.41;5038193;28;20251;-66
2021/12/20 08:22:03;;;;;;;2.97;1.83;;;;;;;3.85;100.00;94141.44;5036712;28;20322;-65
2021/12/20 08:24:28;;;;;;;1.73;1.50;;;;;;;3.88;100.00;94157.13;5038089;28;20209;-61
2021/12/20 08:26:54;;;;;;;2.13;1.93;;;;;;;4.00;100.00;94153.00;5037897;28;20244;-64
2021/12/20 08:29:19;;;;;;;2.53;1.80;;;;;;;3.89;100.00;94148.69;5038178;28;20208;-63
2021/12/20 08:31:45;;;;;;;2.87;2.03;;;;;;;3.98;100.00;94147.28;5036710;28;20252;-63
2021/12/20 08:34:10;;;;;;;3.73;2.20;;;;;;;3.99;100.00;94138.81;5037954;28;20217;-60
2021/12/20 08:36:36;;;;;;;2.67;1.73;;;;;;;4.00;100.00;94147.97;5037926;28;20217;-63
2021/12/20 08:39:02;;;;;;;2.73;1.93;;;;;;;4.14;100.00;94150.34;5036841;28;20651;-63
2021/12/20 08:41:28;;;;;;;3.17;1.90;;;;;;;4.17;100.00;94145.91;5036584;28;20223;-65
2021/12/20 08:43:53;;;;;;;1.73;1.60;;;;;;;4.14;100.00;94153.66;5038010;28;20224;-64
2021/12/20 08:46:19;;;;;;;1.30;1.20;;;;;;;4.10;100.00;94157.28;5036629;28;20244;-63
2021/12/20 08:48:45;;;;;;;1.40;1.30;;;;;;;3.98;100.00;94168.16;5036648;28;20666;-64
2021/12/20 08:51:12;;;;;;;2.47;1.30;;;;;;;3.92;100.00;94180.38;5037196;28;20198;-61
2021/12/20 08:53:39;;;;;;;1.37;1.27;;;;;;;3.95;100.00;94182.66;5038200;28;20234;-60
2021/12/20 08:56:06;;;;;;;1.87;1.63;;;;;;;3.97;100.00;94165.75;5038173;28;20667;-61
2021/12/20 08:58:32;;;;;;;2.60;1.80;;;;;;;4.01;100.00;94160.44;5037875;28;20255;-63
2021/12/20 09:00:58;;;;;;;3.10;1.70;;;;;;;4.07;100.00;94154.19;5036767;28;20206;-64
2021/12/20 09:03:23;;;;;;;1.40;1.30;;;;;;;4.01;100.00;94159.63;5033713;28;20229;-64
2021/12/20 09:05:49;;;;;;;2.80;1.80;;;;;;;4.09;100.00;94144.81;5034641;28;20201;-61
2021/12/20 09:08:18;;;;;;;4.93;1.93;;;;;;;4.21;100.00;94146.50;5035476;28;20560;-63
2021/12/20 09:10:43;;;;;;;3.33;1.80;;;;;;;4.24;100.00;94158.88;5033311;28;20201;-62
2021/12/20 09:13:09;;;;;;;1.63;1.37;;;;;;;4.34;99.48;94154.84;5035001;28;20261;-65
2021/12/20 09:15:36;;;;;;;2.37;1.50;;;;;;;4.28;99.12;94165.31;5033154;28;20180;-60
2021/12/20 09:18:03;;;;;;;3.27;1.60;;;;;;;4.25;98.64;94168.84;5034886;28;20664;-62
2021/12/20 09:20:30;;;;;;;2.77;1.70;;;;;;;4.19;99.81;94160.91;5034415;28;20173;-63
2021/12/20 09:23:03;;;;;;;1.00;1.00;;;;;;;4.28;98.11;94171.13;5034352;28;20265;-65
2021/12/20 09:25:30;;;;;;;2.60;1.30;;;;;;;4.52;97.53;94173.69;5034284;28;20186;-65
2021/12/20 09:27:57;;;;;;;1.30;1.20;;;;;;;4.90;96.46;94184.41;5034051;28;20205;-65
2021/12/20 09:30:25;;;;;;;1.67;1.20;;;;;;;5.08;95.32;94202.47;5033142;28;20560;-61
2021/12/20 09:32:51;;;;;;;1.07;1.03;;;;;;;4.87;95.50;94187.13;5032822;28;20225;-62
2021/12/20 09:35:17;;;;;;;2.10;1.27;;;;;;;4.99;95.46;94200.56;5032890;28;20644;-62
2021/12/20 09:37:43;;;;;;;1.20;1.10;;;;;;;5.13;94.75;94211.28;5032860;28;20190;-62
2021/12/20 09:40:13;;;;;;;1.43;1.27;;;;;;;5.22;93.95;94216.59;5033992;28;20206;-65
2021/12/20 09:42:48;;;;;;;2.27;1.67;;;;;;;5.57;92.64;94225.78;5034294;28;20221;-61
2021/12/20 09:45:20;;;;;;;1.63;1.30;;;;;;;5.74;91.28;94242.16;5033966;28;20687;-65
2021/12/20 09:47:47;;;;;;;1.43;1.23;;;;;;;5.47;91.41;94226.53;5034085;28;20183;-61
2021/12/20 09:50:13;;;;;;;2.30;1.60;;;;;;;5.83;91.18;94231.44;5032454;28;20175;-62
2021/12/20 09:52:42;;;;;;;1.77;1.67;;;;;;;6.16;89.58;94251.66;5032426;28;20223;-61
2021/12/20 09:55:08;;;;;;;1.77;1.20;;;;;;;6.00;88.84;94273.13;5032310;28;20744;-62
2021/12/20 09:57:36;;;;;;;2.80;2.00;;;;;;;6.03;89.05;94248.47;5033846;28;20209;-62
2021/12/20 10:00:05;;;;;;;1.50;1.40;;;;;;;5.83;89.00;94228.91;5033596;28;20240;-63
2021/12/20 10:02:31;;;;;;;2.97;1.73;;;;;;;5.95;90.13;94220.47;5033896;28;20203;-64
2021/12/20 10:04:56;;;;;;;2.80;2.17;;;;;;;6.27;89.27;94235.75;5032219;28;20249;-65
2021/12/20 10:07:25;;;;;;;3.93;1.60;;;;;;;5.93;89.92;94207.19;5033640;28;20203;-65
2021/12/20 10:09:51;;;;;;;1.93;1.70;;;;;;;5.91;90.77;94188.81;5033440;28;20669;-66
2021/12/20 10:12:27;;;;;;;1.80;1.70;;;;;;;5.57;91.85;94187.97;5033680;28;20204;-63
2021/12/20 10:15:03;;;;;;;1.47;1.37;;;;;;;5.43;92.52;94184.81;5033210;28;20197;-66
2021/12/20 10:17:52;;;;;;;2.77;1.83;;;;;;;5.26;93.69;94175.13;5033261;28;20205;-62
2021/12/20 10:20:22;;;;;;;1.93;1.57;;;;;;;4.95;94.21;94157.19;5033196;28;20175;-63
2021/12/20 10:22:48;;;;;;;1.97;1.87;;;;;;;4.88;95.59;94132.56;5033450;28;20621;-63
2021/12/20 10:25:30;;;;;;;1.40;1.27;;;;;;;4.89;96.15;94119.84;5031969;28;20587;-61
2021/12/20 10:28:30;;;;;;;3.17;2.00;;;;;;;4.62;97.57;94109.22;5033868;28;20197;-64
2021/12/20 10:31:06;;;;;;;3.83;1.90;;;;;;;4.65;98.02;94106.47;5022599;28;20282;-61
2021/12/20 10:33:32;;;;;;;1.90;1.53;;;;;;;4.42;97.93;94097.25;5033131;28;20741;-62
2021/12/20 10:36:10;;;;;;;1.83;1.43;;;;;;;4.28;98.99;94094.88;5032755;28;20222;-64
2021/12/20 10:38:41;;;;;;;1.40;1.30;;;;;;;4.22;100.00;94070.94;5033397;28;20553;-63
2021/12/20 10:41:27;;;;;;;3.37;1.70;;;;;;;4.22;100.00;94068.41;5030749;28;20240;-62
2021/12/20 10:43:58;;;;;;;1.70;1.60;;;;;;;4.11;100.00;94063.34;5031194;28;20181;-62
2021/12/20 10:46:27;;;;;;;4.87;1.70;;;;;;;4.14;100.00;94068.16;5032248;28;20244;-63
2021/12/20 10:49:04;;;;;;;2.53;1.80;;;;;;;4.23;100.00;94071.75;5030701;28;20185;-63
2021/12/20 10:51:36;;;;;;;2.80;1.87;;;;;;;4.34;100.00;94074.34;5030571;28;20319;-63
2021/12/20 10:54:09;;;;;;;6.20;2.07;;;;;;;4.33;100.00;94064.34;5032076;28;20197;-61
2021/12/20 10:56:36;;;;;;;3.00;1.90;;;;;;;4.26;100.00;94059.75;5031977;28;20208;-62
2021/12/20 10:59:09;;;;;;;3.73;2.23;;;;;;;4.26;100.00;94074.06;5031957;28;20178;-65
2021/12/20 11:04:21;;;;;;;4.43;2.47;;;;;;;4.11;100.00;94063.34;5032428;28;20191;-62
2021/12/20 11:09:39;;;;;;;2.97;1.60;;;;;;;4.36;100.00;94120.31;5032107;28;20625;-64
2021/12/20 11:12:10;;;;;;;1.30;1.20;;;;;;;4.59;100.00;94136.31;5031340;28;20220;-65
2021/12/20 11:14:39;;;;;;;1.10;0.97;;;;;;;4.99;99.18;94163.59;5031226;28;20174;-65
2021/12/20 11:17:07;;;;;;;1.40;1.00;;;;;;;4.62;100.00;94124.34;5031877;28;20234;-65
2021/12/20 11:19:33;;;;;;;1.37;1.27;;;;;;;4.59;100.00;94119.50;5030443;28;20661;-63
2021/12/20 11:22:14;;;;;;;1.27;1.10;;;;;;;4.92;100.00;94112.09;5031824;28;20202;-63
2021/12/20 11:24:50;;;;;;;1.53;1.20;;;;;;;4.98;99.27;94146.91;5031043;28;20182;-62
2021/12/20 11:27:22;;;;;;;1.47;1.37;;;;;;;4.68;99.12;94116.34;5031437;28;20206;-62
2021/12/20 11:29:51;;;;;;;1.80;1.50;;;;;;;4.63;100.00;94118.38;5031276;28;20183;-63
2021/12/20 11:32:19;;;;;;;1.80;1.17;;;;;;;4.51;100.00;94104.13;5031481;28;20228;-62
2021/12/20 11:34:45;;;;;;;2.93;1.70;;;;;;;4.89;99.89;94127.41;5031489;28;20253;-60
2021/12/20 11:37:14;;;;;;;1.50;1.13;;;;;;;4.88;99.36;94137.59;5032113;28;20206;-65
2021/12/20 11:39:40;;;;;;;2.20;1.43;;;;;;;4.67;98.88;94155.00;5031411;28;20201;-63
2021/12/20 11:42:07;;;;;;;2.17;1.60;;;;;;;4.52;100.00;94110.78;5031848;28;20209;-63
2021/12/20 11:44:35;;;;;;;2.50;1.70;;;;;;;4.69;100.00;94112.09;5020794;22;20582;-61
2021/12/20 11:47:31;;;;;;;1.93;1.20;;;;;;;4.47;100.00;94100.22;5011537;28;20310;-62
2021/12/20 11:50:13;;;;;;;2.47;1.73;;;;;;;4.38;100.00;94105.91;5003430;28;20203;-63
2021/12/20 11:52:41;;;;;;;2.77;1.43;;;;;;;4.45;100.00;94084.44;5011978;28;20214;-62
2021/12/20 11:55:19;;;;;;;2.20;1.40;;;;;;;4.26;100.00;94112.56;5011820;28;20175;-65